sensor_id;sensor_type;location;lat;lon;timestamp;pressure;altitude;pressure_sealevel;temperature;humidity
32789;BME280;19141;48.980;8.410;2023-06-22T04:22:32;100126.13;;;19.48;100.00
32789;BME280;19141;48.980;8.410;2023-06-22T04:24:58;100118.66;;;19.50;100.00
32789;BME280;19141;48.980;8.410;2023-06-22T04:27:23;100127.09;;;19.54;100.00
32789;BME280;19141;48.980;8.410;2023-06-22T04:29:49;100126.41;;;19.59;100.00
32789;BME280;19141;48.980;8.410;2023-06-22T04:32:15;100130.88;;;19.65;100.00
32789;BME280;19141;48.980;8.410;2023-06-22T04:34:40;100133.09;;;19.68;100.00
32789;BME280;19141;48.980;8.410;2023-06-22T04:37:06;100124.31;;;19.72;100.00
32789;BME280;19141;48.980;8.410;2023-06-22T04:39:31;100120.66;;;19.78;100.00
32789;BME280;19141;48.980;8.410;2023-06-22T04:41:57;100121.22;;;19.81;100.00
32789;BME280;19141;48.980;8.410;2023-06-22T04:44:25;100113.47;;;19.84;100.00
32789;BME280;19141;48.980;8.410;2023-06-22T04:46:58;100105.13;;;19.86;100.00
32789;BME280;19141;48.980;8.410;2023-06-22T04:49:29;100111.81;;;19.95;100.00
32789;BME280;19141;48.980;8.410;2023-06-22T04:51:59;100110.84;;;20.01;100.00
32789;BME280;19141;48.980;8.410;2023-06-22T04:54:24;100110.97;;;20.06;100.00
32789;BME280;19141;48.980;8.410;2023-06-22T04:56:50;100106.00;;;20.15;100.00
32789;BME280;19141;48.980;8.410;2023-06-22T04:59:24;100105.78;;;20.16;100.00
32789;BME280;19141;48.980;8.410;2023-06-22T05:02:01;100104.00;;;20.22;100.00
32789;BME280;19141;48.980;8.410;2023-06-22T05:04:27;100091.06;;;20.24;100.00
32789;BME280;19141;48.980;8.410;2023-06-22T05:06:56;100090.56;;;20.27;100.00
32789;BME280;19141;48.980;8.410;2023-06-22T05:09:22;100091.50;;;20.32;100.00
32789;BME280;19141;48.980;8.410;2023-06-22T05:11:47;100099.81;;;20.43;100.00
32789;BME280;19141;48.980;8.410;2023-06-22T05:14:13;100096.16;;;20.49;100.00
32789;BME280;19141;48.980;8.410;2023-06-22T05:16:41;100097.25;;;20.48;100.00
32789;BME280;19141;48.980;8.410;2023-06-22T05:19:07;100089.13;;;20.48;100.00
32789;BME280;19141;48.980;8.410;2023-06-22T05:21:32;100082.75;;;20.54;100.00
32789;BME280;19141;48.980;8.410;2023-06-22T05:23:58;100080.03;;;20.54;100.00
32789;BME280;19141;48.980;8.410;2023-06-22T05:26:29;100084.44;;;20.60;100.00
32789;BME280;19141;48.980;8.410;2023-06-22T05:28:55;100076.44;;;20.65;100.00
32789;BME280;19141;48.980;8.410;2023-06-22T05:31:21;100084.81;;;20.64;100.00
32789;BME280;19141;48.980;8.410;2023-06-22T05:33:48;100072.09;;;20.64;100.00
32789;BME280;19141;48.980;8.410;2023-06-22T05:36:14;100068.66;;;20.69;100.00
32789;BME280;19141;48.980;8.410;2023-06-22T05:38:40;100072.34;;;20.79;100.00
32789;BME280;19141;48.980;8.410;2023-06-22T05:41:06;100079.28;;;20.87;100.00
32789;BME280;19141;48.980;8.410;2023-06-22T05:43:31;100083.03;;;20.86;100.00
32789;BME280;19141;48.980;8.410;2023-06-22T05:45:57;100078.53;;;20.92;100.00
32789;BME280;19141;48.980;8.410;2023-06-22T05:48:23;100083.22;;;20.96;100.00
32789;BME280;19141;48.980;8.410;2023-06-22T05:50:49;100086.16;;;20.95;100.00
32789;BME280;19141;48.980;8.410;2023-06-22T05:53:15;100089.78;;;21.00;100.00
32789;BME280;19141;48.980;8.410;2023-06-22T05:55:40;100085.25;;;21.06;100.00
32789;BME280;19141;48.980;8.410;2023-06-22T05:58:06;100079.09;;;21.10;100.00
32789;BME280;19141;48.980;8.410;2023-06-22T06:00:31;100086.59;;;21.20;100.00
32789;BME280;19141;48.980;8.410;2023-06-22T06:02:58;100078.50;;;21.25;100.00
32789;BME280;19141;48.980;8.410;2023-06-22T06:05:34;100074.41;;;21.23;100.00
32789;BME280;19141;48.980;8.410;2023-06-22T06:08:01;100082.06;;;21.26;100.00
32789;BME280;19141;48.980;8.410;2023-06-22T06:10:26;100085.59;;;21.26;100.00
32789;BME280;19141;48.980;8.410;2023-06-22T06:12:52;100086.84;;;21.35;100.00
32789;BME280;19141;48.980;8.410;2023-06-22T06:15:18;100087.41;;;21.37;100.00
32789;BME280;19141;48.980;8.410;2023-06-22T06:20:12;100084.78;;;21.43;100.00
32789;BME280;19141;48.980;8.410;2023-06-22T06:22:38;100065.34;;;21.46;100.00
32789;BME280;19141;48.980;8.410;2023-06-22T06:25:05;100061.38;;;21.53;100.00
32789;BME280;19141;48.980;8.410;2023-06-22T06:27:30;100059.78;;;21.57;100.00
32789;BME280;19141;48.980;8.410;2023-06-22T06:29:56;100060.22;;;21.71;100.00
32789;BME280;19141;48.980;8.410;2023-06-22T06:32:21;100056.78;;;21.76;100.00
32789;BME280;19141;48.980;8.410;2023-06-22T06:34:47;100047.38;;;21.83;100.00
32789;BME280;19141;48.980;8.410;2023-06-22T06:37:16;100046.63;;;21.88;100.00
32789;BME280;19141;48.980;8.410;2023-06-22T06:39:42;100046.78;;;21.98;100.00
32789;BME280;19141;48.980;8.410;2023-06-22T06:42:07;100054.19;;;22.08;100.00
32789;BME280;19141;48.980;8.410;2023-06-22T06:44:33;100055.72;;;22.20;100.00
32789;BME280;19141;48.980;8.410;2023-06-22T06:47:00;100044.00;;;22.42;100.00
32789;BME280;19141;48.980;8.410;2023-06-22T06:49:25;100046.28;;;22.50;100.00
32789;BME280;19141;48.980;8.410;2023-06-22T06:51:51;100046.69;;;22.64;100.00
32789;BME280;19141;48.980;8.410;2023-06-22T06:54:16;100044.03;;;22.74;100.00
32789;BME280;19141;48.980;8.410;2023-06-22T06:56:41;100046.81;;;22.79;100.00
32789;BME280;19141;48.980;8.410;2023-06-22T06:59:10;100047.50;;;22.91;99.12
32789;BME280;19141;48.980;8.410;2023-06-22T07:01:35;100035.88;;;23.01;97.25
32789;BME280;19141;48.980;8.410;2023-06-22T07:04:01;100023.47;;;23.10;96.71
32789;BME280;19141;48.980;8.410;2023-06-22T07:06:26;100018.13;;;23.25;95.68
32789;BME280;19141;48.980;8.410;2023-06-22T07:08:55;100030.38;;;23.28;95.09
32789;BME280;19141;48.980;8.410;2023-06-22T07:11:20;100025.28;;;23.37;94.57
32789;BME280;19141;48.980;8.410;2023-06-22T07:13:46;100012.56;;;23.52;93.32
32789;BME280;19141;48.980;8.410;2023-06-22T07:16:11;100012.06;;;23.55;92.53
32789;BME280;19141;48.980;8.410;2023-06-22T07:18:36;100015.09;;;23.64;91.45
32789;BME280;19141;48.980;8.410;2023-06-22T07:21:02;100023.28;;;23.69;91.70
32789;BME280;19141;48.980;8.410;2023-06-22T07:23:31;100020.94;;;23.88;91.04
32789;BME280;19141;48.980;8.410;2023-06-22T07:25:56;100018.25;;;23.93;90.37
32789;BME280;19141;48.980;8.410;2023-06-22T07:28:22;100030.22;;;24.02;90.13
32789;BME280;19141;48.980;8.410;2023-06-22T07:30:47;100014.22;;;24.16;87.25
32789;BME280;19141;48.980;8.410;2023-06-22T07:33:13;100014.28;;;24.36;86.44
32789;BME280;19141;48.980;8.410;2023-06-22T07:35:38;100000.69;;;24.47;85.02
32789;BME280;19141;48.980;8.410;2023-06-22T07:38:04;100000.16;;;24.60;84.03
32789;BME280;19141;48.980;8.410;2023-06-22T07:40:29;100009.41;;;24.74;84.69
32789;BME280;19141;48.980;8.410;2023-06-22T07:42:54;99999.63;;;24.73;83.32
32789;BME280;19141;48.980;8.410;2023-06-22T07:45:20;100013.78;;;24.80;83.06
32789;BME280;19141;48.980;8.410;2023-06-22T07:47:45;100012.69;;;24.92;82.98
32789;BME280;19141;48.980;8.410;2023-06-22T07:50:11;100008.59;;;24.89;82.02
32789;BME280;19141;48.980;8.410;2023-06-22T07:52:36;100017.63;;;25.05;80.96
32789;BME280;19141;48.980;8.410;2023-06-22T07:55:02;100011.31;;;25.14;81.40
32789;BME280;19141;48.980;8.410;2023-06-22T07:57:29;100013.19;;;25.34;81.42
32789;BME280;19141;48.980;8.410;2023-06-22T07:59:59;100020.53;;;25.44;80.12
32789;BME280;19141;48.980;8.410;2023-06-22T08:02:26;100007.91;;;25.74;79.11
32789;BME280;19141;48.980;8.410;2023-06-22T08:04:51;100006.78;;;25.80;76.52
32789;BME280;19141;48.980;8.410;2023-06-22T08:07:17;100027.69;;;26.00;75.70
32789;BME280;19141;48.980;8.410;2023-06-22T08:09:48;100028.72;;;26.14;74.51
32789;BME280;19141;48.980;8.410;2023-06-22T08:12:15;100015.94;;;26.09;73.88
32789;BME280;19141;48.980;8.410;2023-06-22T08:14:42;100030.91;;;26.12;75.40
32789;BME280;19141;48.980;8.410;2023-06-22T08:17:08;100028.41;;;26.20;75.25
32789;BME280;19141;48.980;8.410;2023-06-22T08:19:33;100035.97;;;26.34;74.01
32789;BME280;19141;48.980;8.410;2023-06-22T08:21:59;100045.47;;;26.46;75.28
32789;BME280;19141;48.980;8.410;2023-06-22T08:24:25;100048.69;;;26.54;75.21
32789;BME280;19141;48.980;8.410;2023-06-22T08:26:51;100060.38;;;26.64;73.70
32789;BME280;19141;48.980;8.410;2023-06-22T08:29:17;100077.84;;;26.68;73.65
32789;BME280;19141;48.980;8.410;2023-06-22T08:31:42;100081.22;;;26.55;73.30
32789;BME280;19141;48.980;8.410;2023-06-22T08:34:07;100078.44;;;26.60;73.52
32789;BME280;19141;48.980;8.410;2023-06-22T08:36:33;100081.56;;;26.83;72.68
32789;BME280;19141;48.980;8.410;2023-06-22T08:39:00;100074.34;;;26.97;72.74
32789;BME280;19141;48.980;8.410;2023-06-22T08:41:28;100059.75;;;27.12;70.44
32789;BME280;19141;48.980;8.410;2023-06-22T08:43:54;100028.75;;;27.26;69.77
32789;BME280;19141;48.980;8.410;2023-06-22T08:46:19;100022.00;;;27.43;69.42
32789;BME280;19141;48.980;8.410;2023-06-22T08:48:48;100006.81;;;27.55;69.86
32789;BME280;19141;48.980;8.410;2023-06-22T08:51:14;100004.81;;;27.61;69.37
32789;BME280;19141;48.980;8.410;2023-06-22T08:53:39;99996.25;;;27.68;67.24
32789;BME280;19141;48.980;8.410;2023-06-22T08:56:05;99994.97;;;27.84;67.70
32789;BME280;19141;48.980;8.410;2023-06-22T08:58:30;100000.09;;;27.72;67.57
32789;BME280;19141;48.980;8.410;2023-06-22T09:00:55;100006.13;;;27.69;67.28
32789;BME280;19141;48.980;8.410;2023-06-22T09:03:21;100009.03;;;27.77;66.16
32789;BME280;19141;48.980;8.410;2023-06-22T09:05:46;100020.88;;;27.73;66.59
32789;BME280;19141;48.980;8.410;2023-06-22T09:08:12;100006.97;;;27.88;66.03
32789;BME280;19141;48.980;8.410;2023-06-22T09:10:37;100018.69;;;27.94;65.51
32789;BME280;19141;48.980;8.410;2023-06-22T09:13:02;100017.06;;;28.11;66.48
32789;BME280;19141;48.980;8.410;2023-06-22T09:15:28;100010.19;;;28.14;65.87
32789;BME280;19141;48.980;8.410;2023-06-22T09:17:53;100017.16;;;28.25;63.36
32789;BME280;19141;48.980;8.410;2023-06-22T09:20:19;100011.41;;;28.46;61.68
32789;BME280;19141;48.980;8.410;2023-06-22T09:22:45;100003.75;;;28.61;63.50
32789;BME280;19141;48.980;8.410;2023-06-22T09:25:11;100007.16;;;28.53;61.70
32789;BME280;19141;48.980;8.410;2023-06-22T09:27:37;100008.41;;;28.61;60.54
32789;BME280;19141;48.980;8.410;2023-06-22T09:30:03;100004.50;;;28.81;60.54
32789;BME280;19141;48.980;8.410;2023-06-22T09:32:29;99999.97;;;29.09;62.40
32789;BME280;19141;48.980;8.410;2023-06-22T09:34:54;99990.53;;;29.15;58.57
32789;BME280;19141;48.980;8.410;2023-06-22T09:37:20;99987.09;;;29.51;57.85
32789;BME280;19141;48.980;8.410;2023-06-22T09:39:45;99980.50;;;29.65;57.83
32789;BME280;19141;48.980;8.410;2023-06-22T09:42:11;99967.81;;;29.56;56.83
32789;BME280;19141;48.980;8.410;2023-06-22T09:44:36;99951.53;;;29.59;57.44
32789;BME280;19141;48.980;8.410;2023-06-22T09:47:02;99943.59;;;29.71;58.07
32789;BME280;19141;48.980;8.410;2023-06-22T09:49:27;99953.75;;;29.71;57.69
32789;BME280;19141;48.980;8.410;2023-06-22T09:51:53;99943.38;;;29.40;57.99
32789;BME280;19141;48.980;8.410;2023-06-22T09:54:18;99934.66;;;29.38;59.02
32789;BME280;19141;48.980;8.410;2023-06-22T09:56:44;99926.53;;;29.33;58.65
32789;BME280;19141;48.980;8.410;2023-06-22T09:59:09;99912.19;;;29.50;59.01
32789;BME280;19141;48.980;8.410;2023-06-22T10:01:35;99925.81;;;29.28;58.13
32789;BME280;19141;48.980;8.410;2023-06-22T10:04:01;99930.72;;;29.17;60.07
32789;BME280;19141;48.980;8.410;2023-06-22T10:06:26;99923.06;;;29.14;59.86
32789;BME280;19141;48.980;8.410;2023-06-22T10:08:52;99928.94;;;28.93;59.49
32789;BME280;19141;48.980;8.410;2023-06-22T10:11:17;99936.94;;;28.90;59.38
32789;BME280;19141;48.980;8.410;2023-06-22T10:13:43;99943.72;;;28.79;61.17
32789;BME280;19141;48.980;8.410;2023-06-22T10:16:08;99937.47;;;28.92;61.85
32789;BME280;19141;48.980;8.410;2023-06-22T10:18:33;99943.91;;;29.15;60.89
32789;BME280;19141;48.980;8.410;2023-06-22T10:20:59;99935.38;;;29.30;59.90
32789;BME280;19141;48.980;8.410;2023-06-22T10:23:25;99931.50;;;29.31;58.17
32789;BME280;19141;48.980;8.410;2023-06-22T10:25:50;99928.47;;;29.33;57.16
32789;BME280;19141;48.980;8.410;2023-06-22T10:28:16;99925.53;;;29.43;57.26
32789;BME280;19141;48.980;8.410;2023-06-22T10:30:41;99925.91;;;29.64;57.74
32789;BME280;19141;48.980;8.410;2023-06-22T10:33:08;99921.88;;;29.61;56.37
32789;BME280;19141;48.980;8.410;2023-06-22T10:35:34;99924.81;;;29.65;58.29
32789;BME280;19141;48.980;8.410;2023-06-22T10:37:59;99926.31;;;29.71;55.83
32789;BME280;19141;48.980;8.410;2023-06-22T10:40:25;99919.59;;;29.77;57.32
32789;BME280;19141;48.980;8.410;2023-06-22T10:42:50;99928.59;;;29.91;57.12
32789;BME280;19141;48.980;8.410;2023-06-22T10:45:16;99919.75;;;29.94;58.66
32789;BME280;19141;48.980;8.410;2023-06-22T10:47:41;99916.50;;;29.92;58.99
32789;BME280;19141;48.980;8.410;2023-06-22T10:50:10;99909.91;;;29.93;56.84
32789;BME280;19141;48.980;8.410;2023-06-22T10:52:36;99906.97;;;29.90;57.43
32789;BME280;19141;48.980;8.410;2023-06-22T10:55:01;99905.50;;;29.92;58.36
32789;BME280;19141;48.980;8.410;2023-06-22T10:57:26;99905.28;;;30.03;57.11
32789;BME280;19141;48.980;8.410;2023-06-22T10:59:52;99910.44;;;30.18;54.77
32789;BME280;19141;48.980;8.410;2023-06-22T11:02:17;99920.44;;;30.36;56.52
32789;BME280;19141;48.980;8.410;2023-06-22T11:04:43;99912.75;;;30.47;56.40
32789;BME280;19141;48.980;8.410;2023-06-22T11:07:09;99910.69;;;30.52;54.92
32789;BME280;19141;48.980;8.410;2023-06-22T11:09:34;99907.94;;;30.52;54.71
32789;BME280;19141;48.980;8.410;2023-06-22T11:12:00;99911.88;;;30.60;54.53
32789;BME280;19141;48.980;8.410;2023-06-22T11:14:25;99910.75;;;30.39;56.09
32789;BME280;19141;48.980;8.410;2023-06-22T11:16:51;99910.53;;;30.58;56.31
32789;BME280;19141;48.980;8.410;2023-06-22T11:19:17;99910.59;;;30.66;54.84
32789;BME280;19141;48.980;8.410;2023-06-22T11:21:42;99908.88;;;30.48;54.19
32789;BME280;19141;48.980;8.410;2023-06-22T11:24:08;99899.41;;;30.85;54.65
32789;BME280;19141;48.980;8.410;2023-06-22T11:26:33;99899.25;;;30.90;54.41
32789;BME280;19141;48.980;8.410;2023-06-22T11:28:59;99896.09;;;31.05;54.06
32789;BME280;19141;48.980;8.410;2023-06-22T11:31:25;99894.53;;;30.82;53.60
32789;BME280;19141;48.980;8.410;2023-06-22T11:33:50;99894.66;;;31.17;52.60
32789;BME280;19141;48.980;8.410;2023-06-22T11:36:16;99893.00;;;30.98;52.49
32789;BME280;19141;48.980;8.410;2023-06-22T11:38:42;99893.63;;;30.95;54.04
32789;BME280;19141;48.980;8.410;2023-06-22T11:41:09;99890.16;;;30.81;53.71
32789;BME280;19141;48.980;8.410;2023-06-22T11:43:34;99888.22;;;30.82;53.66
32789;BME280;19141;48.980;8.410;2023-06-22T11:46:02;99889.69;;;30.79;53.58
32789;BME280;19141;48.980;8.410;2023-06-22T11:48:28;99898.28;;;30.64;53.35
32789;BME280;19141;48.980;8.410;2023-06-22T11:50:53;99904.06;;;30.53;55.61
32789;BME280;19141;48.980;8.410;2023-06-22T11:53:20;99915.94;;;30.40;54.58
32789;BME280;19141;48.980;8.410;2023-06-22T11:55:46;99910.06;;;30.33;54.96
32789;BME280;19141;48.980;8.410;2023-06-22T11:58:12;99911.94;;;30.46;55.13
32789;BME280;19141;48.980;8.410;2023-06-22T12:00:38;99914.19;;;30.98;55.09
32789;BME280;19141;48.980;8.410;2023-06-22T12:03:03;99905.66;;;31.74;51.37
32789;BME280;19141;48.980;8.410;2023-06-22T12:05:29;99920.28;;;32.18;49.91
32789;BME280;19141;48.980;8.410;2023-06-22T12:07:54;99917.72;;;31.95;50.52
32789;BME280;19141;48.980;8.410;2023-06-22T12:10:21;99912.50;;;31.85;50.36
32789;BME280;19141;48.980;8.410;2023-06-22T12:12:47;99910.25;;;31.96;49.97
32789;BME280;19141;48.980;8.410;2023-06-22T12:15:12;99908.16;;;32.36;49.16
32789;BME280;19141;48.980;8.410;2023-06-22T12:17:38;99906.28;;;32.66;48.29
32789;BME280;19141;48.980;8.410;2023-06-22T12:20:04;99904.66;;;32.74;49.22
32789;BME280;19141;48.980;8.410;2023-06-22T12:22:34;99908.22;;;32.74;48.86
32789;BME280;19141;48.980;8.410;2023-06-22T12:25:00;99910.66;;;32.76;49.14
32789;BME280;19141;48.980;8.410;2023-06-22T12:27:26;99913.78;;;32.39;48.06
32789;BME280;19141;48.980;8.410;2023-06-22T12:29:52;99908.56;;;31.51;50.48
32789;BME280;19141;48.980;8.410;2023-06-22T12:32:17;99910.25;;;31.78;50.31
32789;BME280;19141;48.980;8.410;2023-06-22T12:34:44;99916.50;;;31.61;51.57
32789;BME280;19141;48.980;8.410;2023-06-22T12:37:10;99928.16;;;31.58;51.88
32789;BME280;19141;48.980;8.410;2023-06-22T12:39:36;99930.72;;;31.46;53.57
32789;BME280;19141;48.980;8.410;2023-06-22T12:42:01;99921.78;;;31.32;53.60
32789;BME280;19141;48.980;8.410;2023-06-22T12:44:27;99918.94;;;31.15;52.65
32789;BME280;19141;48.980;8.410;2023-06-22T12:46:52;99922.72;;;30.96;55.79
32789;BME280;19141;48.980;8.410;2023-06-22T12:49:18;99918.22;;;31.00;56.60
32789;BME280;19141;48.980;8.410;2023-06-22T12:51:44;99915.56;;;31.18;54.35
32789;BME280;19141;48.980;8.410;2023-06-22T12:54:10;99915.72;;;31.21;55.76
32789;BME280;19141;48.980;8.410;2023-06-22T12:56:36;99915.03;;;31.16;54.93
32789;BME280;19141;48.980;8.410;2023-06-22T12:59:03;99908.72;;;31.06;53.47
32789;BME280;19141;48.980;8.410;2023-06-22T13:01:29;99923.88;;;30.95;55.10
32789;BME280;19141;48.980;8.410;2023-06-22T13:03:55;99918.56;;;30.99;54.85
32789;BME280;19141;48.980;8.410;2023-06-22T13:06:21;99912.88;;;30.95;56.64
32789;BME280;19141;48.980;8.410;2023-06-22T13:08:46;99903.00;;;30.94;57.46
32789;BME280;19141;48.980;8.410;2023-06-22T13:11:12;99899.94;;;30.96;57.38
32789;BME280;19141;48.980;8.410;2023-06-22T13:13:38;99895.09;;;31.01;57.59
32789;BME280;19141;48.980;8.410;2023-06-22T13:16:03;99886.16;;;30.87;55.68
32789;BME280;19141;48.980;8.410;2023-06-22T13:18:29;99888.31;;;30.99;54.15
32789;BME280;19141;48.980;8.410;2023-06-22T13:20:54;99891.03;;;31.30;56.70
32789;BME280;19141;48.980;8.410;2023-06-22T13:23:20;99891.06;;;31.56;55.56
32789;BME280;19141;48.980;8.410;2023-06-22T13:25:46;99892.09;;;31.86;56.29
32789;BME280;19141;48.980;8.410;2023-06-22T13:28:12;99894.72;;;31.82;55.59
32789;BME280;19141;48.980;8.410;2023-06-22T13:30:40;99882.34;;;31.71;55.93
32789;BME280;19141;48.980;8.410;2023-06-22T13:33:05;99886.78;;;31.90;55.68
32789;BME280;19141;48.980;8.410;2023-06-22T13:35:30;99877.53;;;31.85;54.05
32789;BME280;19141;48.980;8.410;2023-06-22T13:37:56;99880.59;;;31.84;53.16
32789;BME280;19141;48.980;8.410;2023-06-22T13:40:21;99869.44;;;31.98;55.96
32789;BME280;19141;48.980;8.410;2023-06-22T13:42:47;99853.56;;;32.03;54.14
32789;BME280;19141;48.980;8.410;2023-06-22T13:45:12;99860.34;;;31.88;53.28
32789;BME280;19141;48.980;8.410;2023-06-22T13:47:37;99860.34;;;31.80;54.40
32789;BME280;19141;48.980;8.410;2023-06-22T13:50:03;99864.69;;;31.64;56.18
32789;BME280;19141;48.980;8.410;2023-06-22T13:52:28;99853.19;;;31.44;54.91
32789;BME280;19141;48.980;8.410;2023-06-22T13:54:54;99851.06;;;31.41;55.59
32789;BME280;19141;48.980;8.410;2023-06-22T13:57:20;99855.13;;;31.61;58.50
32789;BME280;19141;48.980;8.410;2023-06-22T13:59:45;99867.75;;;31.53;54.41
32789;BME280;19141;48.980;8.410;2023-06-22T14:02:10;99884.41;;;31.31;56.27
32789;BME280;19141;48.980;8.410;2023-06-22T14:04:36;99883.97;;;31.06;58.08
32789;BME280;19141;48.980;8.410;2023-06-22T14:07:01;99863.81;;;30.80;57.38
32789;BME280;19141;48.980;8.410;2023-06-22T14:09:27;99858.19;;;30.63;56.35
32789;BME280;19141;48.980;8.410;2023-06-22T14:11:54;99863.22;;;30.38;56.31
32789;BME280;19141;48.980;8.410;2023-06-22T14:14:20;99861.00;;;30.18;57.56
32789;BME280;19141;48.980;8.410;2023-06-22T14:16:45;99866.53;;;30.04;57.29
32789;BME280;19141;48.980;8.410;2023-06-22T14:19:11;99889.03;;;29.92;58.53
32789;BME280;19141;48.980;8.410;2023-06-22T14:21:36;99894.97;;;29.86;58.67
32789;BME280;19141;48.980;8.410;2023-06-22T14:24:02;99882.28;;;29.76;59.09
32789;BME280;19141;48.980;8.410;2023-06-22T14:26:27;99871.03;;;29.64;61.49
32789;BME280;19141;48.980;8.410;2023-06-22T14:28:53;99857.81;;;29.66;62.00
32789;BME280;19141;48.980;8.410;2023-06-22T14:31:19;99847.59;;;29.58;60.15
32789;BME280;19141;48.980;8.410;2023-06-22T14:33:49;99837.50;;;29.67;61.37
32789;BME280;19141;48.980;8.410;2023-06-22T14:36:15;99843.75;;;29.81;60.00
32789;BME280;19141;48.980;8.410;2023-06-22T14:38:41;99838.97;;;29.87;60.17
32789;BME280;19141;48.980;8.410;2023-06-22T14:41:06;99836.88;;;29.92;59.42
32789;BME280;19141;48.980;8.410;2023-06-22T14:43:32;99820.16;;;30.03;58.69
32789;BME280;19141;48.980;8.410;2023-06-22T14:45:57;99803.78;;;30.11;58.19
32789;BME280;19141;48.980;8.410;2023-06-22T14:48:23;99788.34;;;30.24;58.16
32789;BME280;19141;48.980;8.410;2023-06-22T14:50:48;99787.31;;;30.42;57.55
32789;BME280;19141;48.980;8.410;2023-06-22T14:53:14;99778.94;;;30.47;58.19
32789;BME280;19141;48.980;8.410;2023-06-22T14:55:40;99778.75;;;30.44;54.21
32789;BME280;19141;48.980;8.410;2023-06-22T14:58:05;99760.13;;;30.32;54.35
32789;BME280;19141;48.980;8.410;2023-06-22T15:00:31;99767.06;;;30.38;54.99
32789;BME280;19141;48.980;8.410;2023-06-22T15:02:56;99757.22;;;30.37;57.65
32789;BME280;19141;48.980;8.410;2023-06-22T15:05:22;99754.34;;;30.42;53.44
32789;BME280;19141;48.980;8.410;2023-06-22T15:07:49;99755.84;;;30.57;53.84
32789;BME280;19141;48.980;8.410;2023-06-22T15:10:14;99748.25;;;30.54;53.58
32789;BME280;19141;48.980;8.410;2023-06-22T15:12:40;99736.34;;;30.67;55.57
32789;BME280;19141;48.980;8.410;2023-06-22T15:15:06;99750.63;;;30.95;54.06
32789;BME280;19141;48.980;8.410;2023-06-22T15:17:31;99748.69;;;30.96;51.73
32789;BME280;19141;48.980;8.410;2023-06-22T15:19:58;99741.91;;;30.93;52.27
32789;BME280;19141;48.980;8.410;2023-06-22T15:22:23;99740.16;;;31.06;54.04
32789;BME280;19141;48.980;8.410;2023-06-22T15:24:49;99749.75;;;31.26;53.77
32789;BME280;19141;48.980;8.410;2023-06-22T15:27:14;99762.47;;;31.13;52.17
32789;BME280;19141;48.980;8.410;2023-06-22T15:29:40;99767.81;;;31.10;53.16
32789;BME280;19141;48.980;8.410;2023-06-22T15:32:08;99778.34;;;31.16;53.99
32789;BME280;19141;48.980;8.410;2023-06-22T15:34:34;99771.88;;;31.12;52.92
32789;BME280;19141;48.980;8.410;2023-06-22T15:36:59;99772.69;;;31.21;54.02
32789;BME280;19141;48.980;8.410;2023-06-22T15:39:25;99752.50;;;31.26;52.85
32789;BME280;19141;48.980;8.410;2023-06-22T15:41:55;99766.25;;;31.26;52.19
32789;BME280;19141;48.980;8.410;2023-06-22T15:44:21;99772.53;;;31.18;51.98
32789;BME280;19141;48.980;8.410;2023-06-22T15:46:47;99777.19;;;31.08;51.29
32789;BME280;19141;48.980;8.410;2023-06-22T15:49:14;99767.31;;;30.99;52.29
32789;BME280;19141;48.980;8.410;2023-06-22T15:51:39;99761.00;;;30.98;52.58
32789;BME280;19141;48.980;8.410;2023-06-22T15:54:05;99758.75;;;31.00;53.86
32789;BME280;19141;48.980;8.410;2023-06-22T15:56:30;99753.91;;;30.97;53.88
32789;BME280;19141;48.980;8.410;2023-06-22T15:58:55;99749.50;;;30.96;53.97
32789;BME280;19141;48.980;8.410;2023-06-22T16:01:22;99734.13;;;30.87;52.89
32789;BME280;19141;48.980;8.410;2023-06-22T16:03:51;99742.19;;;30.83;52.96
32789;BME280;19141;48.980;8.410;2023-06-22T16:06:16;99743.81;;;30.75;53.16
32789;BME280;19141;48.980;8.410;2023-06-22T16:08:41;99733.75;;;30.71;54.00
32789;BME280;19141;48.980;8.410;2023-06-22T16:11:07;99726.34;;;30.71;54.37
32789;BME280;19141;48.980;8.410;2023-06-22T16:13:33;99722.78;;;30.71;54.41
32789;BME280;19141;48.980;8.410;2023-06-22T16:15:58;99712.28;;;30.73;55.14
32789;BME280;19141;48.980;8.410;2023-06-22T16:18:24;99710.03;;;30.75;55.05
32789;BME280;19141;48.980;8.410;2023-06-22T16:20:49;99698.19;;;30.66;54.87
32789;BME280;19141;48.980;8.410;2023-06-22T16:23:15;99705.63;;;30.65;55.13
32789;BME280;19141;48.980;8.410;2023-06-22T16:25:40;99712.44;;;30.68;55.04
32789;BME280;19141;48.980;8.410;2023-06-22T16:28:05;99710.94;;;30.62;55.56
32789;BME280;19141;48.980;8.410;2023-06-22T16:30:31;99709.69;;;30.68;54.92
32789;BME280;19141;48.980;8.410;2023-06-22T16:32:57;99718.84;;;30.63;54.21
32789;BME280;19141;48.980;8.410;2023-06-22T16:35:27;99713.84;;;30.65;53.43
32789;BME280;19141;48.980;8.410;2023-06-22T16:37:53;99708.47;;;30.51;54.01
32789;BME280;19141;48.980;8.410;2023-06-22T16:40:19;99694.72;;;30.51;55.08
32789;BME280;19141;48.980;8.410;2023-06-22T16:42:46;99698.47;;;30.56;56.21
32789;BME280;19141;48.980;8.410;2023-06-22T16:45:15;99706.56;;;30.52;56.29
32789;BME280;19141;48.980;8.410;2023-06-22T16:47:45;99707.66;;;30.51;56.48
32789;BME280;19141;48.980;8.410;2023-06-22T16:50:11;99721.09;;;30.52;56.49
32789;BME280;19141;48.980;8.410;2023-06-22T16:52:36;99721.56;;;30.54;55.92
32789;BME280;19141;48.980;8.410;2023-06-22T16:55:04;99727.41;;;30.53;51.27
32789;BME280;19141;48.980;8.410;2023-06-22T16:57:30;99728.81;;;30.50;49.69
32789;BME280;19141;48.980;8.410;2023-06-22T16:59:56;99722.72;;;30.53;47.83
32789;BME280;19141;48.980;8.410;2023-06-22T17:02:23;99715.56;;;30.44;48.27
32789;BME280;19141;48.980;8.410;2023-06-22T17:04:52;99722.84;;;30.48;47.20
32789;BME280;19141;48.980;8.410;2023-06-22T17:07:22;99727.66;;;30.43;48.00
32789;BME280;19141;48.980;8.410;2023-06-22T17:09:49;99722.63;;;30.36;47.39
32789;BME280;19141;48.980;8.410;2023-06-22T17:12:15;99720.69;;;30.37;48.24